sensor_id;sensor_type;location;lat;lon;timestamp;pressure;altitude;pressure_sealevel;temperature;humidity
64115;BME280;62188;35.640;139.748;2022-11-15T00:01:37;101112.30;;;17.25;40.83
64115;BME280;62188;35.640;139.748;2022-11-15T00:04:03;101123.10;;;17.09;41.02
64115;BME280;62188;35.640;139.748;2022-11-15T00:06:28;101125.51;;;17.18;41.02
64115;BME280;62188;35.640;139.748;2022-11-15T00:08:53;101117.36;;;17.09;40.72
64115;BME280;62188;35.640;139.748;2022-11-15T00:11:19;101119.20;;;17.00;41.27
64115;BME280;62188;35.640;139.748;2022-11-15T00:13:45;101119.14;;;17.21;41.33
64115;BME280;62188;35.640;139.748;2022-11-15T00:16:10;101117.54;;;17.14;41.33
64115;BME280;62188;35.640;139.748;2022-11-15T00:18:36;101113.88;;;17.47;41.12
64115;BME280;62188;35.640;139.748;2022-11-15T00:21:05;101110.34;;;17.30;40.87
64115;BME280;62188;35.640;139.748;2022-11-15T00:23:27;101112.86;;;17.49;40.46
64115;BME280;62188;35.640;139.748;2022-11-15T00:25:57;101115.80;;;17.04;41.01
64115;BME280;62188;35.640;139.748;2022-11-15T00:28:18;101106.23;;;17.18;41.16
64115;BME280;62188;35.640;139.748;2022-11-15T00:30:44;101102.06;;;17.56;41.30
64115;BME280;62188;35.640;139.748;2022-11-15T00:33:10;101095.18;;;17.42;41.18
64115;BME280;62188;35.640;139.748;2022-11-15T00:35:36;101096.86;;;17.57;40.98
64115;BME280;62188;35.640;139.748;2022-11-15T00:38:01;101094.94;;;17.63;40.90
64115;BME280;62188;35.640;139.748;2022-11-15T00:40:27;101082.28;;;17.76;41.16
64115;BME280;62188;35.640;139.748;2022-11-15T00:42:52;101076.34;;;17.70;41.15
64115;BME280;62188;35.640;139.748;2022-11-15T00:45:18;101072.58;;;17.85;40.87
64115;BME280;62188;35.640;139.748;2022-11-15T00:47:45;101073.15;;;17.88;40.54
64115;BME280;62188;35.640;139.748;2022-11-15T00:50:09;101066.50;;;17.87;40.51
64115;BME280;62188;35.640;139.748;2022-11-15T00:52:34;101065.05;;;17.96;40.34
64115;BME280;62188;35.640;139.748;2022-11-15T00:54:59;101065.97;;;18.28;40.45
64115;BME280;62188;35.640;139.748;2022-11-15T00:57:25;101059.88;;;18.10;40.18
64115;BME280;62188;35.640;139.748;2022-11-15T00:59:51;101056.53;;;18.22;40.54
64115;BME280;62188;35.640;139.748;2022-11-15T01:02:17;101052.34;;;18.31;40.54
64115;BME280;62188;35.640;139.748;2022-11-15T01:04:41;101041.72;;;18.28;40.37
64115;BME280;62188;35.640;139.748;2022-11-15T01:07:08;101031.00;;;18.01;39.91
64115;BME280;62188;35.640;139.748;2022-11-15T01:09:33;101030.00;;;18.33;40.22
64115;BME280;62188;35.640;139.748;2022-11-15T01:11:58;101028.87;;;17.96;39.26
64115;BME280;62188;35.640;139.748;2022-11-15T01:14:24;101019.58;;;18.11;39.61
64115;BME280;62188;35.640;139.748;2022-11-15T01:16:50;101015.94;;;17.95;39.51
64115;BME280;62188;35.640;139.748;2022-11-15T01:19:15;101011.84;;;18.03;39.84
64115;BME280;62188;35.640;139.748;2022-11-15T01:21:41;101009.97;;;18.13;39.90
64115;BME280;62188;35.640;139.748;2022-11-15T01:24:07;101015.13;;;18.16;40.04
64115;BME280;62188;35.640;139.748;2022-11-15T01:26:32;101013.90;;;17.93;39.75
64115;BME280;62188;35.640;139.748;2022-11-15T01:28:58;101014.60;;;18.07;39.74
64115;BME280;62188;35.640;139.748;2022-11-15T01:31:23;101016.02;;;18.00;39.64
64115;BME280;62188;35.640;139.748;2022-11-15T01:33:49;101012.22;;;17.87;39.44
64115;BME280;62188;35.640;139.748;2022-11-15T01:36:16;101011.39;;;17.65;39.91
64115;BME280;62188;35.640;139.748;2022-11-15T01:38:40;101007.66;;;17.45;39.99
64115;BME280;62188;35.640;139.748;2022-11-15T01:41:06;101006.44;;;17.25;40.34
64115;BME280;62188;35.640;139.748;2022-11-15T01:43:33;100999.41;;;17.37;40.43
64115;BME280;62188;35.640;139.748;2022-11-15T01:46:00;100994.05;;;17.15;40.46
64115;BME280;62188;35.640;139.748;2022-11-15T01:48:31;100996.03;;;17.25;40.63
64115;BME280;62188;35.640;139.748;2022-11-15T01:50:48;100994.93;;;17.24;40.91
64115;BME280;62188;35.640;139.748;2022-11-15T01:53:14;100993.77;;;17.37;40.89
64115;BME280;62188;35.640;139.748;2022-11-15T01:55:39;100994.57;;;17.48;40.76
64115;BME280;62188;35.640;139.748;2022-11-15T01:58:05;100988.71;;;17.43;40.85
64115;BME280;62188;35.640;139.748;2022-11-15T02:00:31;100981.85;;;17.49;40.85
64115;BME280;62188;35.640;139.748;2022-11-15T02:02:56;100980.15;;;17.32;41.10
64115;BME280;62188;35.640;139.748;2022-11-15T02:05:21;100978.02;;;17.96;41.34
64115;BME280;62188;35.640;139.748;2022-11-15T02:07:48;100969.60;;;17.56;41.00
64115;BME280;62188;35.640;139.748;2022-11-15T02:10:17;100970.60;;;17.65;40.71
64115;BME280;62188;35.640;139.748;2022-11-15T02:12:38;100967.55;;;17.72;40.83
64115;BME280;62188;35.640;139.748;2022-11-15T02:15:06;100959.09;;;17.63;40.43
64115;BME280;62188;35.640;139.748;2022-11-15T02:17:50;100955.54;;;17.54;40.63
64115;BME280;62188;35.640;139.748;2022-11-15T02:22:30;100957.06;;;17.69;40.72
64115;BME280;62188;35.640;139.748;2022-11-15T02:25:03;100955.25;;;17.65;40.94
64115;BME280;62188;35.640;139.748;2022-11-15T02:29:51;100938.69;;;17.88;40.77
64115;BME280;62188;35.640;139.748;2022-11-15T02:32:06;100930.01;;;18.05;40.91
64115;BME280;62188;35.640;139.748;2022-11-15T02:34:32;100929.43;;;18.11;40.09
64115;BME280;62188;35.640;139.748;2022-11-15T02:37:03;100930.52;;;17.93;40.04
64115;BME280;62188;35.640;139.748;2022-11-15T02:39:25;100929.46;;;17.97;40.36
64115;BME280;62188;35.640;139.748;2022-11-15T02:41:50;100928.51;;;17.53;40.59
64115;BME280;62188;35.640;139.748;2022-11-15T02:44:16;100923.13;;;17.51;40.49
64115;BME280;62188;35.640;139.748;2022-11-15T02:46:38;100915.15;;;17.63;40.79
64115;BME280;62188;35.640;139.748;2022-11-15T02:49:02;100912.86;;;17.47;41.10
64115;BME280;62188;35.640;139.748;2022-11-15T02:51:27;100903.98;;;17.69;41.18
64115;BME280;62188;35.640;139.748;2022-11-15T02:53:53;100901.80;;;17.98;40.90
64115;BME280;62188;35.640;139.748;2022-11-15T02:56:19;100898.15;;;17.89;41.11
64115;BME280;62188;35.640;139.748;2022-11-15T02:58:54;100888.22;;;18.08;41.31
64115;BME280;62188;35.640;139.748;2022-11-15T03:01:15;100882.76;;;18.25;42.05
64115;BME280;62188;35.640;139.748;2022-11-15T03:03:47;100880.09;;;18.29;42.27
64115;BME280;62188;35.640;139.748;2022-11-15T03:06:09;100871.79;;;18.11;41.02
64115;BME280;62188;35.640;139.748;2022-11-15T03:08:31;100863.44;;;18.23;40.75
64115;BME280;62188;35.640;139.748;2022-11-15T03:10:59;100854.70;;;18.58;40.29
64115;BME280;62188;35.640;139.748;2022-11-15T03:13:24;100849.80;;;18.62;40.24
64115;BME280;62188;35.640;139.748;2022-11-15T03:15:48;100844.52;;;18.40;40.02
64115;BME280;62188;35.640;139.748;2022-11-15T03:18:12;100847.29;;;18.44;39.91
64115;BME280;62188;35.640;139.748;2022-11-15T03:20:36;100845.40;;;18.83;40.08
64115;BME280;62188;35.640;139.748;2022-11-15T03:23:03;100840.89;;;18.85;40.10
64115;BME280;62188;35.640;139.748;2022-11-15T03:25:26;100842.24;;;18.81;39.63
64115;BME280;62188;35.640;139.748;2022-11-15T03:27:55;100841.52;;;18.64;39.86
64115;BME280;62188;35.640;139.748;2022-11-15T03:30:17;100840.57;;;18.44;39.75
64115;BME280;62188;35.640;139.748;2022-11-15T03:32:46;100838.95;;;19.00;39.67
64115;BME280;62188;35.640;139.748;2022-11-15T03:35:11;100838.97;;;18.55;39.81
64115;BME280;62188;35.640;139.748;2022-11-15T03:37:36;100836.21;;;19.11;39.83
64115;BME280;62188;35.640;139.748;2022-11-15T03:39:58;100833.26;;;18.61;39.30
64115;BME280;62188;35.640;139.748;2022-11-15T03:42:30;100828.50;;;18.55;39.33
64115;BME280;62188;35.640;139.748;2022-11-15T03:44:54;100825.82;;;18.54;39.32
64115;BME280;62188;35.640;139.748;2022-11-15T03:47:19;100822.60;;;18.55;39.43
64115;BME280;62188;35.640;139.748;2022-11-15T03:49:44;100817.36;;;18.83;39.20
64115;BME280;62188;35.640;139.748;2022-11-15T03:52:06;100826.81;;;18.81;39.22
64115;BME280;62188;35.640;139.748;2022-11-15T03:54:32;100825.58;;;18.51;38.95
64115;BME280;62188;35.640;139.748;2022-11-15T03:56:57;100820.88;;;18.48;39.06
64115;BME280;62188;35.640;139.748;2022-11-15T03:59:23;100817.60;;;18.66;38.86
64115;BME280;62188;35.640;139.748;2022-11-15T04:01:48;100812.62;;;18.56;38.85
64115;BME280;62188;35.640;139.748;2022-11-15T04:04:14;100812.06;;;18.31;39.23
64115;BME280;62188;35.640;139.748;2022-11-15T04:06:39;100813.06;;;18.57;39.34
64115;BME280;62188;35.640;139.748;2022-11-15T04:09:05;100813.30;;;18.83;39.22
64115;BME280;62188;35.640;139.748;2022-11-15T04:11:30;100812.45;;;18.81;39.06
64115;BME280;62188;35.640;139.748;2022-11-15T04:13:56;100812.75;;;18.78;38.99
64115;BME280;62188;35.640;139.748;2022-11-15T04:16:22;100808.81;;;18.71;39.08
64115;BME280;62188;35.640;139.748;2022-11-15T04:18:47;100808.87;;;18.59;39.31
64115;BME280;62188;35.640;139.748;2022-11-15T04:21:13;100806.75;;;18.12;39.30
64115;BME280;62188;35.640;139.748;2022-11-15T04:23:39;100805.89;;;18.40;39.41
64115;BME280;62188;35.640;139.748;2022-11-15T04:26:06;100803.80;;;18.63;39.43
64115;BME280;62188;35.640;139.748;2022-11-15T04:28:30;100795.79;;;18.35;39.16
64115;BME280;62188;35.640;139.748;2022-11-15T04:30:55;100788.60;;;18.50;39.20
64115;BME280;62188;35.640;139.748;2022-11-15T04:33:20;100790.90;;;18.21;39.31
64115;BME280;62188;35.640;139.748;2022-11-15T04:35:46;100784.47;;;18.25;39.36
64115;BME280;62188;35.640;139.748;2022-11-15T04:38:12;100777.65;;;18.32;39.74
64115;BME280;62188;35.640;139.748;2022-11-15T04:40:37;100777.60;;;18.18;39.72
64115;BME280;62188;35.640;139.748;2022-11-15T04:43:03;100782.05;;;18.45;39.78
64115;BME280;62188;35.640;139.748;2022-11-15T04:45:28;100780.59;;;18.50;39.76
64115;BME280;62188;35.640;139.748;2022-11-15T04:47:53;100782.81;;;18.45;39.68
64115;BME280;62188;35.640;139.748;2022-11-15T04:50:19;100784.38;;;18.49;39.83
64115;BME280;62188;35.640;139.748;2022-11-15T04:52:51;100781.51;;;18.54;39.93
64115;BME280;62188;35.640;139.748;2022-11-15T04:55:11;100773.90;;;18.13;39.80
64115;BME280;62188;35.640;139.748;2022-11-15T04:57:36;100771.83;;;18.59;40.01
64115;BME280;62188;35.640;139.748;2022-11-15T05:00:02;100779.52;;;18.66;39.79
64115;BME280;62188;35.640;139.748;2022-11-15T05:02:27;100782.06;;;18.39;40.21
64115;BME280;62188;35.640;139.748;2022-11-15T05:04:53;100785.51;;;18.67;40.28
64115;BME280;62188;35.640;139.748;2022-11-15T05:07:18;100791.02;;;18.81;40.11
64115;BME280;62188;35.640;139.748;2022-11-15T05:09:43;100793.94;;;18.55;39.57
64115;BME280;62188;35.640;139.748;2022-11-15T05:12:09;100798.30;;;18.81;39.54
64115;BME280;62188;35.640;139.748;2022-11-15T05:14:35;100797.66;;;18.84;39.53
64115;BME280;62188;35.640;139.748;2022-11-15T05:17:01;100798.82;;;18.70;39.44
64115;BME280;62188;35.640;139.748;2022-11-15T05:19:26;100800.31;;;18.43;39.26
64115;BME280;62188;35.640;139.748;2022-11-15T05:21:51;100796.16;;;18.57;39.07
64115;BME280;62188;35.640;139.748;2022-11-15T05:24:17;100794.04;;;18.48;39.30
64115;BME280;62188;35.640;139.748;2022-11-15T05:26:42;100791.72;;;18.99;39.05
64115;BME280;62188;35.640;139.748;2022-11-15T05:29:10;100790.35;;;18.54;39.10
64115;BME280;62188;35.640;139.748;2022-11-15T05:31:34;100788.53;;;18.53;39.11
64115;BME280;62188;35.640;139.748;2022-11-15T05:34:00;100786.40;;;18.55;38.74
64115;BME280;62188;35.640;139.748;2022-11-15T05:36:31;100795.22;;;18.58;38.88
64115;BME280;62188;35.640;139.748;2022-11-15T05:38:51;100803.01;;;18.43;38.63
64115;BME280;62188;35.640;139.748;2022-11-15T05:41:17;100811.41;;;18.71;38.98
64115;BME280;62188;35.640;139.748;2022-11-15T05:43:43;100819.76;;;18.53;39.00
64115;BME280;62188;35.640;139.748;2022-11-15T05:46:08;100825.77;;;18.54;38.26
64115;BME280;62188;35.640;139.748;2022-11-15T05:48:34;100833.11;;;18.76;38.07
64115;BME280;62188;35.640;139.748;2022-11-15T05:50:59;100830.66;;;18.65;37.99
64115;BME280;62188;35.640;139.748;2022-11-15T05:53:30;100828.39;;;18.67;38.21
64115;BME280;62188;35.640;139.748;2022-11-15T05:55:50;100823.17;;;18.51;38.30
64115;BME280;62188;35.640;139.748;2022-11-15T05:58:15;100826.77;;;18.54;38.26
64115;BME280;62188;35.640;139.748;2022-11-15T06:00:41;100834.40;;;18.97;38.43
64115;BME280;62188;35.640;139.748;2022-11-15T06:03:06;100836.53;;;18.82;38.44
64115;BME280;62188;35.640;139.748;2022-11-15T06:05:31;100834.75;;;18.62;38.37
64115;BME280;62188;35.640;139.748;2022-11-15T06:07:59;100832.36;;;18.62;38.31
64115;BME280;62188;35.640;139.748;2022-11-15T06:10:23;100834.50;;;19.12;38.32
64115;BME280;62188;35.640;139.748;2022-11-15T06:15:14;100835.13;;;18.90;38.20
64115;BME280;62188;35.640;139.748;2022-11-15T06:17:39;100833.72;;;18.64;38.29
64115;BME280;62188;35.640;139.748;2022-11-15T06:20:05;100832.64;;;18.58;38.33
64115;BME280;62188;35.640;139.748;2022-11-15T06:22:30;100829.24;;;18.48;38.17
64115;BME280;62188;35.640;139.748;2022-11-15T06:24:56;100829.84;;;18.83;38.48
64115;BME280;62188;35.640;139.748;2022-11-15T06:27:22;100831.44;;;18.88;38.50
64115;BME280;62188;35.640;139.748;2022-11-15T06:29:46;100832.51;;;18.40;38.40
64115;BME280;62188;35.640;139.748;2022-11-15T06:32:12;100834.02;;;18.93;38.38
64115;BME280;62188;35.640;139.748;2022-11-15T06:34:38;100839.84;;;18.40;38.42
64115;BME280;62188;35.640;139.748;2022-11-15T06:37:04;100847.04;;;18.26;38.45
64115;BME280;62188;35.640;139.748;2022-11-15T06:39:29;100853.01;;;18.51;38.49
64115;BME280;62188;35.640;139.748;2022-11-15T06:41:55;100857.18;;;18.44;38.38
64115;BME280;62188;35.640;139.748;2022-11-15T06:44:20;100854.04;;;18.39;38.33
64115;BME280;62188;35.640;139.748;2022-11-15T06:46:45;100855.53;;;18.45;38.48
64115;BME280;62188;35.640;139.748;2022-11-15T06:49:10;100851.70;;;18.23;38.49
64115;BME280;62188;35.640;139.748;2022-11-15T06:51:37;100848.13;;;18.22;38.35
64115;BME280;62188;35.640;139.748;2022-11-15T06:54:02;100850.51;;;18.18;38.34
64115;BME280;62188;35.640;139.748;2022-11-15T06:56:28;100853.43;;;18.20;38.44
64115;BME280;62188;35.640;139.748;2022-11-15T06:58:53;100855.33;;;18.42;38.34
64115;BME280;62188;35.640;139.748;2022-11-15T07:01:19;100863.03;;;17.94;38.36
64115;BME280;62188;35.640;139.748;2022-11-15T07:03:44;100860.69;;;18.29;38.54
64115;BME280;62188;35.640;139.748;2022-11-15T07:06:10;100867.26;;;17.81;38.78
64115;BME280;62188;35.640;139.748;2022-11-15T07:08:36;100870.37;;;18.27;38.90
64115;BME280;62188;35.640;139.748;2022-11-15T07:11:02;100877.45;;;18.23;38.96
64115;BME280;62188;35.640;139.748;2022-11-15T07:13:27;100876.73;;;18.29;38.83
64115;BME280;62188;35.640;139.748;2022-11-15T07:15:52;100875.61;;;18.29;38.79
64115;BME280;62188;35.640;139.748;2022-11-15T07:18:18;100879.28;;;18.31;38.78
64115;BME280;62188;35.640;139.748;2022-11-15T07:20:44;100885.46;;;18.28;39.12
64115;BME280;62188;35.640;139.748;2022-11-15T07:23:09;100889.83;;;18.40;39.14
64115;BME280;62188;35.640;139.748;2022-11-15T07:25:35;100893.26;;;18.45;39.00
64115;BME280;62188;35.640;139.748;2022-11-15T07:28:00;100891.02;;;18.44;38.85
64115;BME280;62188;35.640;139.748;2022-11-15T07:30:26;100889.66;;;17.96;38.81
64115;BME280;62188;35.640;139.748;2022-11-15T07:32:54;100892.00;;;18.24;38.71
64115;BME280;62188;35.640;139.748;2022-11-15T07:35:17;100895.02;;;18.53;38.74
64115;BME280;62188;35.640;139.748;2022-11-15T07:37:43;100895.99;;;18.55;38.69
64115;BME280;62188;35.640;139.748;2022-11-15T07:40:10;100894.17;;;18.52;38.72
64115;BME280;62188;35.640;139.748;2022-11-15T07:42:34;100893.38;;;18.44;38.65
64115;BME280;62188;35.640;139.748;2022-11-15T07:44:59;100894.68;;;18.25;38.91
64115;BME280;62188;35.640;139.748;2022-11-15T07:47:25;100897.23;;;18.22;38.70
64115;BME280;62188;35.640;139.748;2022-11-15T07:49:50;100905.63;;;18.52;38.81
64115;BME280;62188;35.640;139.748;2022-11-15T07:52:16;100901.67;;;18.06;38.80
64115;BME280;62188;35.640;139.748;2022-11-15T07:54:41;100900.91;;;18.12;38.67
64115;BME280;62188;35.640;139.748;2022-11-15T07:57:08;100897.65;;;18.50;38.31
64115;BME280;62188;35.640;139.748;2022-11-15T07:59:33;100894.19;;;18.54;38.39
64115;BME280;62188;35.640;139.748;2022-11-15T08:02:03;100898.87;;;18.34;38.34
64115;BME280;62188;35.640;139.748;2022-11-15T08:04:24;100899.35;;;18.33;38.20
64115;BME280;62188;35.640;139.748;2022-11-15T08:06:51;100900.91;;;18.53;38.29
64115;BME280;62188;35.640;139.748;2022-11-15T08:09:15;100899.86;;;18.55;38.22
64115;BME280;62188;35.640;139.748;2022-11-15T08:11:40;100900.01;;;18.19;38.39
64115;BME280;62188;35.640;139.748;2022-11-15T08:14:06;100903.58;;;18.38;38.44
64115;BME280;62188;35.640;139.748;2022-11-15T08:16:31;100909.48;;;18.41;38.47
64115;BME280;62188;35.640;139.748;2022-11-15T08:18:57;100908.18;;;17.88;38.38
64115;BME280;62188;35.640;139.748;2022-11-15T08:21:24;100909.55;;;18.16;38.34
64115;BME280;62188;35.640;139.748;2022-11-15T08:23:49;100908.48;;;18.46;38.28
64115;BME280;62188;35.640;139.748;2022-11-15T08:26:14;100913.64;;;18.50;38.20
64115;BME280;62188;35.640;139.748;2022-11-15T08:28:40;100922.43;;;18.18;38.20
64115;BME280;62188;35.640;139.748;2022-11-15T08:31:06;100921.97;;;18.18;38.12
64115;BME280;62188;35.640;139.748;2022-11-15T08:33:31;100916.18;;;18.03;38.26
64115;BME280;62188;35.640;139.748;2022-11-15T08:35:58;100917.88;;;18.45;37.92
64115;BME280;62188;35.640;139.748;2022-11-15T08:38:21;100921.84;;;17.94;38.02
64115;BME280;62188;35.640;139.748;2022-11-15T08:40:48;100925.01;;;18.46;38.01
64115;BME280;62188;35.640;139.748;2022-11-15T08:43:13;100925.11;;;18.24;37.97
64115;BME280;62188;35.640;139.748;2022-11-15T08:45:38;100930.35;;;18.24;38.06
64115;BME280;62188;35.640;139.748;2022-11-15T08:48:04;100927.57;;;18.28;38.15
64115;BME280;62188;35.640;139.748;2022-11-15T08:50:30;100926.04;;;18.51;38.05
64115;BME280;62188;35.640;139.748;2022-11-15T08:52:55;100932.76;;;18.51;38.07
64115;BME280;62188;35.640;139.748;2022-11-15T08:55:20;100929.76;;;18.27;38.07
64115;BME280;62188;35.640;139.748;2022-11-15T08:57:47;100928.64;;;18.30;38.09
64115;BME280;62188;35.640;139.748;2022-11-15T09:00:13;100927.14;;;18.12;38.09
64115;BME280;62188;35.640;139.748;2022-11-15T09:02:39;100926.36;;;18.37;38.03
64115;BME280;62188;35.640;139.748;2022-11-15T09:05:03;100921.22;;;18.17;37.99
64115;BME280;62188;35.640;139.748;2022-11-15T09:07:28;100919.59;;;18.14;37.89
64115;BME280;62188;35.640;139.748;2022-11-15T09:09:54;100925.02;;;18.14;38.01
64115;BME280;62188;35.640;139.748;2022-11-15T09:12:19;100928.19;;;18.38;37.92
64115;BME280;62188;35.640;139.748;2022-11-15T09:14:45;100933.08;;;18.41;38.01
64115;BME280;62188;35.640;139.748;2022-11-15T09:17:10;100939.46;;;18.68;37.97
64115;BME280;62188;35.640;139.748;2022-11-15T09:19:35;100932.04;;;18.71;38.03
64115;BME280;62188;35.640;139.748;2022-11-15T09:22:01;100924.66;;;18.51;37.91
64115;BME280;62188;35.640;139.748;2022-11-15T09:24:27;100919.62;;;18.55;37.94
64115;BME280;62188;35.640;139.748;2022-11-15T09:26:52;100924.90;;;18.81;37.96
64115;BME280;62188;35.640;139.748;2022-11-15T09:29:18;100933.99;;;18.35;37.92
64115;BME280;62188;35.640;139.748;2022-11-15T09:31:43;100936.25;;;18.37;37.92
64115;BME280;62188;35.640;139.748;2022-11-15T09:34:09;100936.23;;;18.38;37.84
64115;BME280;62188;35.640;139.748;2022-11-15T09:36:34;100937.10;;;18.38;38.26
64115;BME280;62188;35.640;139.748;2022-11-15T09:39:00;100941.17;;;18.32;38.09
64115;BME280;62188;35.640;139.748;2022-11-15T09:43:58;100951.69;;;18.24;37.85
64115;BME280;62188;35.640;139.748;2022-11-15T09:46:20;100949.30;;;18.22;37.91
64115;BME280;62188;35.640;139.748;2022-11-15T09:48:50;100942.90;;;18.26;37.84
64115;BME280;62188;35.640;139.748;2022-11-15T09:51:14;100939.85;;;18.24;37.64
64115;BME280;62188;35.640;139.748;2022-11-15T09:53:39;100932.82;;;18.21;37.48
64115;BME280;62188;35.640;139.748;2022-11-15T09:56:02;100929.45;;;18.44;37.53
64115;BME280;62188;35.640;139.748;2022-11-15T09:58:29;100928.97;;;18.22;37.42
64115;BME280;62188;35.640;139.748;2022-11-15T10:00:51;100937.86;;;18.47;37.43
64115;BME280;62188;35.640;139.748;2022-11-15T10:03:16;100941.87;;;18.69;37.54
64115;BME280;62188;35.640;139.748;2022-11-15T10:05:44;100946.65;;;18.49;37.58
64115;BME280;62188;35.640;139.748;2022-11-15T10:08:16;100959.51;;;18.28;37.47
64115;BME280;62188;35.640;139.748;2022-11-15T10:10:35;100953.18;;;18.25;37.31
64115;BME280;62188;35.640;139.748;2022-11-15T10:12:57;100952.08;;;18.49;37.41
64115;BME280;62188;35.640;139.748;2022-11-15T10:15:22;100954.35;;;18.28;37.61
64115;BME280;62188;35.640;139.748;2022-11-15T10:20:20;100954.69;;;18.84;37.42
64115;BME280;62188;35.640;139.748;2022-11-15T10:22:45;100950.09;;;18.36;37.33
64115;BME280;62188;35.640;139.748;2022-11-15T10:25:20;100951.57;;;18.61;37.47
64115;BME280;62188;35.640;139.748;2022-11-15T10:27:30;100946.94;;;18.38;37.56
64115;BME280;62188;35.640;139.748;2022-11-15T10:29:55;100951.13;;;18.67;37.71
64115;BME280;62188;35.640;139.748;2022-11-15T10:32:21;100945.34;;;18.62;37.58
64115;BME280;62188;35.640;139.748;2022-11-15T10:34:46;100940.88;;;18.62;37.65
64115;BME280;62188;35.640;139.748;2022-11-15T10:37:11;100935.20;;;18.35;37.60
64115;BME280;62188;35.640;139.748;2022-11-15T10:39:37;100928.02;;;18.33;37.36
64115;BME280;62188;35.640;139.748;2022-11-15T10:44:30;100935.08;;;18.33;37.74
64115;BME280;62188;35.640;139.748;2022-11-15T10:49:21;100944.80;;;18.31;37.67
64115;BME280;62188;35.640;139.748;2022-11-15T10:51:47;100940.78;;;18.31;37.83
64115;BME280;62188;35.640;139.748;2022-11-15T10:54:11;100933.33;;;18.31;37.82
64115;BME280;62188;35.640;139.748;2022-11-15T10:56:35;100927.43;;;18.32;37.91
64115;BME280;62188;35.640;139.748;2022-11-15T10:59:01;100925.97;;;18.36;37.95
64115;BME280;62188;35.640;139.748;2022-11-15T11:01:28;100927.78;;;18.61;37.80
64115;BME280;62188;35.640;139.748;2022-11-15T11:04:00;100933.11;;;18.38;37.68
64115;BME280;62188;35.640;139.748;2022-11-15T11:06:18;100929.89;;;18.32;37.59
64115;BME280;62188;35.640;139.748;2022-11-15T11:11:09;100925.39;;;18.53;37.71
64115;BME280;62188;35.640;139.748;2022-11-15T11:13:35;100921.74;;;18.27;37.64
64115;BME280;62188;35.640;139.748;2022-11-15T11:18:30;100915.35;;;18.22;37.48
64115;BME280;62188;35.640;139.748;2022-11-15T11:21:01;100917.72;;;18.19;37.47
64115;BME280;62188;35.640;139.748;2022-11-15T11:23:34;100918.54;;;18.63;37.59
64115;BME280;62188;35.640;139.748;2022-11-15T11:25:48;100915.72;;;18.42;37.75
64115;BME280;62188;35.640;139.748;2022-11-15T11:28:19;100916.47;;;18.44;37.69
64115;BME280;62188;35.640;139.748;2022-11-15T11:30:42;100917.47;;;18.22;37.73
64115;BME280;62188;35.640;139.748;2022-11-15T11:33:08;100918.67;;;18.23;37.60
64115;BME280;62188;35.640;139.748;2022-11-15T11:35:35;100919.15;;;18.24;37.57
64115;BME280;62188;35.640;139.748;2022-11-15T11:37:52;100919.10;;;18.22;37.60
64115;BME280;62188;35.640;139.748;2022-11-15T11:40:27;100921.88;;;18.22;37.62
64115;BME280;62188;35.640;139.748;2022-11-15T11:42:46;100924.54;;;18.24;37.84
64115;BME280;62188;35.640;139.748;2022-11-15T11:45:15;100919.88;;;18.21;37.67
64115;BME280;62188;35.640;139.748;2022-11-15T11:47:36;100917.08;;;18.19;37.61
64115;BME280;62188;35.640;139.748;2022-11-15T11:50:01;100918.35;;;18.65;37.67
64115;BME280;62188;35.640;139.748;2022-11-15T11:52:26;100917.25;;;18.13;37.62
64115;BME280;62188;35.640;139.748;2022-11-15T11:54:58;100915.89;;;18.39;37.75
64115;BME280;62188;35.640;139.748;2022-11-15T11:57:21;100911.63;;;18.16;37.80
64115;BME280;62188;35.640;139.748;2022-11-15T11:59:46;100913.79;;;18.17;37.81
64115;BME280;62188;35.640;139.748;2022-11-15T12:02:11;100917.23;;;18.41;37.92
64115;BME280;62188;35.640;139.748;2022-11-15T12:04:34;100915.21;;;18.18;37.97
64115;BME280;62188;35.640;139.748;2022-11-15T12:06:58;100912.67;;;18.19;38.02
64115;BME280;62188;35.640;139.748;2022-11-15T12:09:27;100910.43;;;18.20;38.19
64115;BME280;62188;35.640;139.748;2022-11-15T12:11:52;100903.06;;;18.42;37.82
64115;BME280;62188;35.640;139.748;2022-11-15T12:14:24;100901.79;;;18.13;37.71
64115;BME280;62188;35.640;139.748;2022-11-15T12:16:40;100896.85;;;18.30;37.74
64115;BME280;62188;35.640;139.748;2022-11-15T12:19:07;100900.62;;;18.28;37.67
64115;BME280;62188;35.640;139.748;2022-11-15T12:21:35;100902.93;;;18.48;37.64
64115;BME280;62188;35.640;139.748;2022-11-15T12:23:58;100901.93;;;18.22;37.60
64115;BME280;62188;35.640;139.748;2022-11-15T12:26:23;100900.01;;;18.23;37.61
64115;BME280;62188;35.640;139.748;2022-11-15T12:28:49;100901.83;;;18.23;37.58
64115;BME280;62188;35.640;139.748;2022-11-15T12:31:15;100902.10;;;17.97;37.66
64115;BME280;62188;35.640;139.748;2022-11-15T12:33:40;100905.12;;;18.21;38.02
64115;BME280;62188;35.640;139.748;2022-11-15T12:36:04;100906.29;;;18.24;38.21
64115;BME280;62188;35.640;139.748;2022-11-15T12:45:46;100901.07;;;18.36;38.60
64115;BME280;62188;35.640;139.748;2022-11-15T12:50:53;100916.28;;;18.24;38.90
64115;BME280;62188;35.640;139.748;2022-11-15T12:55:32;100924.69;;;17.91;39.24